Time;durP1;ratioP1;P1;durP2;ratioP2;P2;SDS_P1;SDS_P2;PMS_P1;PMS_P2;Temp;Humidity;BMP_temperature;BMP_pressure;BME280_temperature;BME280_humidity;BME280_pressure;Samples;Min_cycle;Max_cycle;Signal;HPM_P1;HPM_P2
2022/04/23 00:01:24;;;;;;;15.88;14.38;;;;;;;-148.33;100.00;56587.81;5048401;28;20024;-56
2022/04/23 00:03:49;;;;;;;15.45;14.07;;;;;;;-148.33;100.00;56587.81;5049221;28;20032;-58
2022/04/23 00:06:14;;;;;;;17.23;14.82;;;;;;;-148.33;100.00;56587.81;5049818;28;20025;-57
2022/04/23 00:08:40;;;;;;;15.63;13.98;;;;;;;-148.33;100.00;56587.81;5049442;28;20401;-55
2022/04/23 00:11:05;;;;;;;16.17;14.50;;;;;;;-148.33;100.00;56587.81;5049365;28;20032;-57
2022/04/23 00:13:30;;;;;;;16.77;15.15;;;;;;;-148.33;100.00;56587.81;5049032;28;20496;-56
2022/04/23 00:15:56;;;;;;;15.00;13.52;;;;;;;-148.33;100.00;56587.81;5049266;28;20029;-56
2022/04/23 00:18:21;;;;;;;17.90;16.20;;;;;;;-148.33;100.00;56587.81;5049376;28;20397;-57
2022/04/23 00:20:46;;;;;;;17.40;14.43;;;;;;;-148.33;100.00;56587.81;5048819;28;20144;-57
2022/04/23 00:23:12;;;;;;;15.70;14.23;;;;;;;-148.33;100.00;56587.81;5048308;28;20033;-57
2022/04/23 00:25:38;;;;;;;16.23;14.75;;;;;;;-148.33;100.00;56587.81;5048178;28;20080;-58
2022/04/23 00:28:03;;;;;;;16.13;14.75;;;;;;;-148.33;100.00;56587.81;5049119;28;20059;-56
2022/04/23 00:30:29;;;;;;;16.85;14.93;;;;;;;-148.33;100.00;56587.81;5048648;28;20113;-57
2022/04/23 00:33:01;;;;;;;15.45;13.90;;;;;;;-148.33;100.00;56587.81;5048806;28;20519;-55
2022/04/23 00:35:26;;;;;;;16.30;14.77;;;;;;;-148.33;100.00;56587.81;5049009;28;20033;-56
2022/04/23 00:37:52;;;;;;;17.25;15.55;;;;;;;-148.33;100.00;56587.81;5048386;28;20943;-57
2022/04/23 00:40:18;;;;;;;18.10;16.30;;;;;;;-148.33;100.00;56587.81;5048660;28;20032;-58
2022/04/23 00:42:48;;;;;;;16.50;15.00;;;;;;;-148.33;100.00;56587.81;5048784;28;20037;-56
2022/04/23 00:45:14;;;;;;;16.50;15.10;;;;;;;-148.33;100.00;56587.81;5048544;28;20071;-57
2022/04/23 00:47:39;;;;;;;17.98;16.33;;;;;;;-148.33;100.00;56587.81;5049108;28;20654;-56
2022/04/23 00:50:05;;;;;;;16.45;14.95;;;;;;;-148.33;100.00;56587.81;5048664;28;20024;-57
2022/04/23 00:52:32;;;;;;;16.65;14.93;;;;;;;-148.33;100.00;56587.81;5048639;28;20076;-57
2022/04/23 00:54:59;;;;;;;18.75;16.85;;;;;;;-148.33;100.00;56587.81;5048734;28;20049;-57
2022/04/23 00:57:24;;;;;;;19.13;17.38;;;;;;;-148.33;100.00;56587.81;5048302;28;20033;-57
2022/04/23 00:59:50;;;;;;;17.70;16.10;;;;;;;-148.33;100.00;56587.81;5048056;28;20032;-55
2022/04/23 01:02:15;;;;;;;18.00;16.40;;;;;;;-148.33;100.00;56587.81;5048593;28;20115;-57
2022/04/23 01:04:41;;;;;;;17.92;16.42;;;;;;;-148.33;100.00;56587.81;5047842;28;20035;-56
2022/04/23 01:07:07;;;;;;;17.63;16.15;;;;;;;-148.33;100.00;56587.81;5048051;28;20325;-55
2022/04/23 01:09:33;;;;;;;18.60;16.88;;;;;;;-148.33;100.00;56587.81;5048102;28;20479;-56
2022/04/23 01:11:59;;;;;;;19.60;17.70;;;;;;;-148.33;100.00;56587.81;5047340;28;20032;-57
2022/04/23 01:14:26;;;;;;;19.38;17.52;;;;;;;-148.33;100.00;56587.81;5047511;28;20052;-57
2022/04/23 01:16:51;;;;;;;19.50;17.80;;;;;;;-148.33;100.00;56587.81;5048366;28;20037;-54
2022/04/23 01:19:17;;;;;;;19.02;17.02;;;;;;;-148.33;100.00;56587.81;5047851;28;20028;-56
2022/04/23 01:21:42;;;;;;;19.30;17.60;;;;;;;-148.33;100.00;56587.81;5048350;28;20028;-56
2022/04/23 01:24:09;;;;;;;19.45;17.55;;;;;;;-148.33;100.00;56587.81;5048005;28;20408;-58
2022/04/23 01:26:34;;;;;;;20.42;18.52;;;;;;;-148.33;100.00;56587.81;5047490;28;20396;-57
2022/04/23 01:29:00;;;;;;;18.55;16.90;;;;;;;-148.33;100.00;56587.81;5048406;28;20024;-57
2022/04/23 01:31:26;;;;;;;19.73;17.95;;;;;;;-148.33;100.00;56587.81;5048213;28;20032;-57
2022/04/23 01:33:51;;;;;;;20.27;18.05;;;;;;;-148.33;100.00;56587.81;5047692;28;20053;-56
2022/04/23 01:36:16;;;;;;;18.48;16.80;;;;;;;-148.33;100.00;56587.81;5048161;28;20040;-58
2022/04/23 01:38:43;;;;;;;20.42;18.70;;;;;;;-148.33;100.00;56587.81;5054058;28;20461;-57
2022/04/23 01:41:09;;;;;;;20.35;18.55;;;;;;;-148.33;100.00;56587.81;5054426;28;20028;-55
2022/04/23 01:43:34;;;;;;;20.33;18.48;;;;;;;-148.33;100.00;56587.81;5054481;28;20082;-57
2022/04/23 01:46:00;;;;;;;19.73;18.02;;;;;;;-148.33;100.00;56587.81;5054984;28;20056;-57
2022/04/23 01:48:25;;;;;;;19.88;18.08;;;;;;;-148.33;100.00;56587.81;5054281;28;20024;-58
2022/04/23 01:50:51;;;;;;;20.60;18.77;;;;;;;-148.33;100.00;56587.81;5054208;28;20020;-58
2022/04/23 01:53:18;;;;;;;22.10;20.10;;;;;;;-148.33;100.00;56587.81;5053713;28;20100;-57
2022/04/23 01:55:44;;;;;;;21.40;19.60;;;;;;;-148.33;100.00;56587.81;5054424;28;20031;-56
2022/04/23 01:58:09;;;;;;;21.00;19.00;;;;;;;-148.33;100.00;56587.81;5054462;28;20029;-56
2022/04/23 02:00:34;;;;;;;20.58;18.73;;;;;;;-148.33;100.00;56587.81;5053860;28;20475;-54
2022/04/23 02:03:00;;;;;;;20.92;19.17;;;;;;;-148.33;100.00;56587.81;5051212;28;20033;-56
2022/04/23 02:05:25;;;;;;;22.08;20.00;;;;;;;-148.33;100.00;56587.81;5050666;28;20031;-59
2022/04/23 02:07:51;;;;;;;22.67;20.58;;;;;;;-148.33;100.00;56587.81;5054972;28;20032;-56
2022/04/23 02:10:16;;;;;;;22.63;20.67;;;;;;;-148.33;100.00;56587.81;5053842;28;20055;-57
2022/04/23 02:12:42;;;;;;;23.70;21.55;;;;;;;-148.33;100.00;56587.81;5054938;28;20111;-56
2022/04/23 02:15:09;;;;;;;24.10;21.90;;;;;;;-148.33;100.00;56587.81;5054038;28;20013;-56
2022/04/23 02:17:37;;;;;;;23.23;20.88;;;;;;;-148.33;100.00;56587.81;5053965;28;20112;-57
2022/04/23 02:20:10;;;;;;;24.70;22.50;;;;;;;-148.33;100.00;56587.81;5054540;28;20114;-57
2022/04/23 02:22:36;;;;;;;23.33;21.33;;;;;;;-148.33;100.00;56587.81;5053647;28;20032;-56
2022/04/23 02:25:01;;;;;;;23.55;21.30;;;;;;;-148.33;100.00;56587.81;5054103;28;20032;-56
2022/04/23 02:27:27;;;;;;;25.00;22.55;;;;;;;-148.33;100.00;56587.81;5054061;28;20020;-57
2022/04/23 02:29:54;;;;;;;24.90;22.67;;;;;;;-148.33;100.00;56587.81;5054821;28;20033;-56
2022/04/23 02:32:19;;;;;;;27.13;24.67;;;;;;;-148.33;100.00;56587.81;5053923;28;20025;-56
2022/04/23 02:34:45;;;;;;;24.77;22.58;;;;;;;-148.33;100.00;56587.81;5054027;28;20017;-55
2022/04/23 02:37:11;;;;;;;25.45;22.98;;;;;;;-148.33;100.00;56587.81;5054063;28;20029;-55
2022/04/23 02:39:37;;;;;;;24.83;22.58;;;;;;;-148.33;100.00;56587.81;5054250;28;20024;-57
2022/04/23 02:42:03;;;;;;;23.98;21.77;;;;;;;-148.33;100.00;56587.81;5054593;28;20029;-55
2022/04/23 02:44:28;;;;;;;25.80;23.30;;;;;;;-148.33;100.00;56587.81;5054531;28;20025;-57
2022/04/23 02:46:54;;;;;;;25.42;23.13;;;;;;;-148.33;100.00;56587.81;5053533;28;20025;-56
2022/04/23 02:49:20;;;;;;;26.55;24.02;;;;;;;-148.33;100.00;56587.81;5050576;28;20496;-58
2022/04/23 02:51:45;;;;;;;24.67;22.33;;;;;;;-148.33;100.00;56587.81;5050868;28;20033;-57
2022/04/23 02:54:12;;;;;;;26.48;24.17;;;;;;;-148.33;100.00;56587.81;5050570;28;20106;-55
2022/04/23 02:56:38;;;;;;;28.23;25.63;;;;;;;-148.33;100.00;56587.81;5050988;28;20029;-57
2022/04/23 02:59:05;;;;;;;26.20;23.77;;;;;;;-148.33;100.00;56587.81;5050498;28;20491;-57
2022/04/23 03:01:31;;;;;;;28.92;26.33;;;;;;;-148.33;100.00;56587.81;5050062;28;20036;-57
2022/04/23 03:03:56;;;;;;;27.75;25.20;;;;;;;-148.33;100.00;56587.81;5050555;28;20063;-56
2022/04/23 03:06:22;;;;;;;28.77;26.17;;;;;;;-148.33;100.00;56587.81;5050452;28;20024;-56
2022/04/23 03:08:48;;;;;;;29.70;27.05;;;;;;;-148.33;100.00;56587.81;5050463;28;20451;-56
2022/04/23 03:11:14;;;;;;;28.60;25.63;;;;;;;-148.33;100.00;56587.81;5050333;28;20025;-57
2022/04/23 03:13:39;;;;;;;30.38;27.60;;;;;;;-148.33;100.00;56587.81;5050886;28;20520;-57
2022/04/23 03:16:04;;;;;;;27.92;25.38;;;;;;;-148.33;100.00;56587.81;5049637;28;20071;-55
2022/04/23 03:18:30;;;;;;;29.30;26.58;;;;;;;-148.33;100.00;56587.81;5050518;28;20496;-56
2022/04/23 03:20:55;;;;;;;28.17;25.58;;;;;;;-148.33;100.00;56587.81;5050132;28;20038;-55
2022/04/23 03:23:21;;;;;;;30.27;27.35;;;;;;;-148.33;100.00;56587.81;5050385;28;20131;-57
2022/04/23 03:25:47;;;;;;;28.98;26.20;;;;;;;-148.33;100.00;56587.81;5049967;28;20052;-55
2022/04/23 03:28:14;;;;;;;30.02;27.33;;;;;;;-148.33;100.00;56587.81;5050168;28;20067;-56
2022/04/23 03:30:41;;;;;;;29.67;26.73;;;;;;;-148.33;100.00;56587.81;5050355;28;20051;-56
2022/04/23 03:33:06;;;;;;;29.48;26.70;;;;;;;-148.33;100.00;56587.81;5049757;28;20219;-57
2022/04/23 03:35:32;;;;;;;29.90;27.23;;;;;;;-148.33;100.00;56587.81;5049585;28;20423;-56
2022/04/23 03:37:58;;;;;;;29.63;26.67;;;;;;;-148.33;100.00;56587.81;5050215;28;20025;-57
2022/04/23 03:40:24;;;;;;;29.90;27.15;;;;;;;-148.33;100.00;56587.81;5050105;28;20104;-58
2022/04/23 03:42:50;;;;;;;29.10;26.45;;;;;;;-148.33;100.00;56587.81;5050334;28;20089;-57
2022/04/23 03:45:18;;;;;;;30.85;28.05;;;;;;;-148.33;100.00;56587.81;5049461;28;20021;-56
2022/04/23 03:47:45;;;;;;;28.67;25.98;;;;;;;-148.33;100.00;56587.81;5050348;28;20100;-57
2022/04/23 03:50:10;;;;;;;29.33;26.52;;;;;;;-148.33;100.00;56587.81;5049252;28;20550;-57
2022/04/23 03:52:35;;;;;;;30.08;27.08;;;;;;;-148.33;100.00;56587.81;5049372;28;20119;-57
2022/04/23 03:55:01;;;;;;;29.23;26.70;;;;;;;-148.33;100.00;56587.81;5049635;28;20017;-57
2022/04/23 03:57:27;;;;;;;30.20;27.38;;;;;;;-148.33;100.00;56587.81;5049537;28;20028;-55
2022/04/23 03:59:52;;;;;;;31.98;29.08;;;;;;;-148.33;100.00;56587.81;5049674;28;20128;-54
2022/04/23 04:02:18;;;;;;;31.40;28.45;;;;;;;-148.33;100.00;56587.81;5048968;28;20035;-55
2022/04/23 04:04:43;;;;;;;31.20;28.35;;;;;;;-148.33;100.00;56587.81;5049573;28;20025;-57
2022/04/23 04:07:09;;;;;;;31.67;28.67;;;;;;;-148.33;100.00;56587.81;5049193;28;20036;-56
2022/04/23 04:09:35;;;;;;;30.17;27.48;;;;;;;-148.33;100.00;56587.81;5049229;28;20032;-57
2022/04/23 04:12:03;;;;;;;31.40;28.50;;;;;;;-148.33;100.00;56587.81;5048993;28;20472;-56
2022/04/23 04:14:30;;;;;;;31.55;28.55;;;;;;;-148.33;100.00;56587.81;5049008;28;20020;-56
2022/04/23 04:16:56;;;;;;;31.42;28.48;;;;;;;-148.33;100.00;56587.81;5047670;28;20360;-55
2022/04/23 04:19:21;;;;;;;33.10;30.20;;;;;;;-148.33;100.00;56587.81;5047206;28;20380;-54
2022/04/23 04:21:47;;;;;;;31.83;28.92;;;;;;;-148.33;100.00;56587.81;5046296;28;20508;-55
2022/04/23 04:24:15;;;;;;;33.53;30.38;;;;;;;-148.33;100.00;56587.81;5047102;28;20029;-57
2022/04/23 04:26:41;;;;;;;32.40;29.20;;;;;;;-148.33;100.00;56587.81;5046789;28;20040;-57
2022/04/23 04:29:07;;;;;;;33.88;30.67;;;;;;;-148.33;100.00;56587.81;5046171;28;20025;-57
2022/04/23 04:31:49;;;;;;;32.33;29.33;;;;;;;-148.33;100.00;56587.81;5048046;28;20392;-54
2022/04/23 04:34:19;;;;;;;32.90;29.70;;;;;;;-148.33;100.00;56587.81;5048496;28;20138;-55
2022/04/23 04:36:46;;;;;;;31.42;28.58;;;;;;;-148.33;100.00;56587.81;5048630;28;20017;-57
2022/04/23 04:39:12;;;;;;;34.00;30.90;;;;;;;-148.33;100.00;56587.81;5048498;28;20017;-56
2022/04/23 04:41:37;;;;;;;32.08;29.10;;;;;;;-148.33;100.00;56587.81;5048509;28;20408;-56
2022/04/23 04:44:07;;;;;;;32.25;29.42;;;;;;;-148.33;100.00;56587.81;5048242;28;20078;-57
2022/04/23 04:46:33;;;;;;;32.53;29.33;;;;;;;-148.33;100.00;56587.81;5048944;28;20066;-57
2022/04/23 04:48:59;;;;;;;33.63;30.45;;;;;;;-148.33;100.00;56587.81;5048632;28;20021;-57
2022/04/23 04:51:24;;;;;;;31.73;28.73;;;;;;;-148.33;100.00;56587.81;5049008;28;20081;-56
2022/04/23 04:53:52;;;;;;;31.95;28.92;;;;;;;-148.33;100.00;56587.81;5048234;28;20020;-56
2022/04/23 04:56:18;;;;;;;32.15;29.20;;;;;;;-148.33;100.00;56587.81;5048114;28;20063;-56
2022/04/23 04:58:43;;;;;;;32.45;29.35;;;;;;;-148.33;100.00;56587.81;5048109;28;20051;-57
2022/04/23 05:01:09;;;;;;;32.17;29.02;;;;;;;-148.33;100.00;56587.81;5048326;28;20021;-56
2022/04/23 05:03:35;;;;;;;32.03;29.13;;;;;;;-148.33;100.00;56587.81;5048276;28;20021;-57
2022/04/23 05:06:01;;;;;;;32.70;29.70;;;;;;;-148.33;100.00;56587.81;5047036;28;20035;-56
2022/04/23 05:08:26;;;;;;;31.20;28.23;;;;;;;-148.33;100.00;56587.81;5047885;28;20017;-57
2022/04/23 05:10:51;;;;;;;33.25;30.15;;;;;;;-148.33;100.00;56587.81;5047382;28;20025;-55
2022/04/23 05:13:17;;;;;;;31.23;28.15;;;;;;;-148.33;100.00;56587.81;5048000;28;20112;-55
2022/04/23 05:15:44;;;;;;;29.83;27.02;;;;;;;-148.33;100.00;56587.81;5047761;28;20507;-53
2022/04/23 05:18:10;;;;;;;31.70;28.60;;;;;;;-148.33;100.00;56587.81;5047913;28;20032;-57
2022/04/23 05:20:35;;;;;;;32.85;29.75;;;;;;;-148.33;100.00;56587.81;5037903;28;20029;-55
2022/04/23 05:23:01;;;;;;;31.98;28.90;;;;;;;-148.33;100.00;56587.81;5047016;28;20415;-57
2022/04/23 05:25:26;;;;;;;33.30;30.10;;;;;;;-148.33;100.00;56587.81;5040526;28;20032;-56
2022/04/23 05:27:51;;;;;;;31.63;28.63;;;;;;;-148.33;100.00;56587.81;5046934;28;20400;-56
2022/04/23 05:30:16;;;;;;;31.95;29.05;;;;;;;-148.33;100.00;56587.81;5043132;28;20021;-55
2022/04/23 05:32:42;;;;;;;30.63;27.83;;;;;;;-148.33;100.00;56587.81;5035971;28;20053;-55
2022/04/23 05:35:07;;;;;;;29.70;27.08;;;;;;;-148.33;100.00;56587.81;5039091;28;20021;-56
2022/04/23 05:37:32;;;;;;;30.38;27.48;;;;;;;-148.33;100.00;56587.81;5039038;28;20029;-60
2022/04/23 05:39:58;;;;;;;29.75;27.15;;;;;;;-148.33;100.00;56587.81;5038478;28;20025;-57
2022/04/23 05:42:23;;;;;;;31.05;28.15;;;;;;;-148.33;100.00;56587.81;5042744;28;20029;-57
2022/04/23 05:44:48;;;;;;;31.33;28.15;;;;;;;-148.33;100.00;56587.81;5047337;28;20021;-57
2022/04/23 05:47:13;;;;;;;29.50;26.90;;;;;;;-148.33;100.00;56587.81;5046793;28;20469;-56
2022/04/23 05:49:39;;;;;;;30.65;27.92;;;;;;;-148.33;100.00;56587.81;5047415;28;20033;-57
2022/04/23 05:52:05;;;;;;;32.03;29.00;;;;;;;-148.33;100.00;56587.81;5047662;28;20025;-55
2022/04/23 05:54:30;;;;;;;30.10;27.45;;;;;;;-148.33;100.00;56587.81;5047838;28;20098;-56
2022/04/23 05:56:55;;;;;;;30.67;27.88;;;;;;;-148.33;100.00;56587.81;5047490;28;20104;-55
2022/04/23 05:59:21;;;;;;;30.58;27.88;;;;;;;-148.33;100.00;56587.81;5047987;28;20021;-56
2022/04/23 06:01:46;;;;;;;30.98;28.23;;;;;;;-148.33;100.00;56587.81;5047188;28;20025;-57
2022/04/23 06:04:11;;;;;;;29.35;26.75;;;;;;;-148.33;100.00;56587.81;5047452;28;20038;-58
2022/04/23 06:06:37;;;;;;;30.60;27.95;;;;;;;-148.33;100.00;56587.81;5047571;28;20029;-57
2022/04/23 06:09:02;;;;;;;30.65;27.95;;;;;;;-148.33;100.00;56587.81;5047665;28;20389;-55
2022/04/23 06:11:27;;;;;;;29.23;26.73;;;;;;;-148.33;100.00;56587.81;5047586;28;20017;-56
2022/04/23 06:13:52;;;;;;;28.55;26.08;;;;;;;-148.33;100.00;56587.81;5047124;28;20398;-57
2022/04/23 06:16:18;;;;;;;30.85;28.05;;;;;;;-148.33;100.00;56587.81;5047188;28;20091;-56
2022/04/23 06:18:43;;;;;;;28.73;26.23;;;;;;;-148.33;100.00;56587.81;5047715;28;20021;-57
2022/04/23 06:21:08;;;;;;;28.55;26.17;;;;;;;-148.33;100.00;56587.81;5040302;28;20036;-56
2022/04/23 06:23:33;;;;;;;28.35;25.75;;;;;;;-148.33;100.00;56587.81;5029963;28;20440;-57
2022/04/23 06:25:59;;;;;;;28.85;26.23;;;;;;;-148.33;100.00;56587.81;5039973;28;20083;-58
2022/04/23 06:28:24;;;;;;;27.88;25.50;;;;;;;-148.33;100.00;56587.81;5035812;28;20045;-56
2022/04/23 06:30:49;;;;;;;27.52;25.13;;;;;;;-148.33;100.00;56587.81;5037097;28;20052;-57
2022/04/23 06:33:15;;;;;;;28.42;25.83;;;;;;;-148.33;100.00;56587.81;5030532;28;20046;-57
2022/04/23 06:35:40;;;;;;;28.50;26.00;;;;;;;-148.33;100.00;56587.81;5031088;28;20029;-56
2022/04/23 06:38:06;;;;;;;27.45;25.17;;;;;;;-148.33;100.00;56587.81;5041332;28;20472;-56
2022/04/23 06:40:31;;;;;;;25.70;23.40;;;;;;;-148.33;100.00;56587.81;5048969;28;20104;-56
2022/04/23 06:42:56;;;;;;;26.70;24.40;;;;;;;-148.33;100.00;56587.81;5050150;28;20045;-57
2022/04/23 06:45:22;;;;;;;26.98;24.58;;;;;;;-148.33;100.00;56587.81;5050428;28;20033;-58
2022/04/23 06:47:47;;;;;;;26.63;24.42;;;;;;;-148.33;100.00;56587.81;5045637;28;20049;-55
2022/04/23 06:50:12;;;;;;;25.42;23.13;;;;;;;-148.33;100.00;56587.81;5049817;28;20032;-58
2022/04/23 06:52:37;;;;;;;25.83;23.55;;;;;;;-148.33;100.00;56587.81;5049987;28;20028;-58
2022/04/23 06:55:04;;;;;;;25.55;23.25;;;;;;;-148.33;100.00;56587.81;5050401;28;20025;-58
2022/04/23 06:57:30;;;;;;;25.42;23.23;;;;;;;-148.33;100.00;56587.81;5050192;28;20032;-58
2022/04/23 07:00:00;;;;;;;26.52;24.30;;;;;;;-148.33;100.00;56587.81;5050441;28;20083;-58
2022/04/23 07:02:25;;;;;;;25.38;23.27;;;;;;;-148.33;100.00;56587.81;5050469;28;20025;-57
2022/04/23 07:04:50;;;;;;;25.73;23.52;;;;;;;-148.33;100.00;56587.81;5050368;28;20524;-56
2022/04/23 07:07:15;;;;;;;26.27;24.05;;;;;;;-148.33;100.00;56587.81;5050377;28;20340;-58
2022/04/23 07:09:41;;;;;;;26.25;24.13;;;;;;;-148.33;100.00;56587.81;5044455;28;20074;-57
2022/04/23 07:12:07;;;;;;;25.88;23.77;;;;;;;-148.33;100.00;56587.81;5037645;28;20021;-58
2022/04/23 07:14:32;;;;;;;25.27;23.17;;;;;;;-148.33;100.00;56587.81;5038810;28;20013;-57
2022/04/23 07:16:58;;;;;;;25.30;23.08;;;;;;;-148.33;100.00;56587.81;5046569;28;20028;-57
2022/04/23 07:19:24;;;;;;;24.27;22.27;;;;;;;-148.33;100.00;56587.81;5046516;28;20113;-56
2022/04/23 07:21:49;;;;;;;24.92;22.80;;;;;;;-148.33;100.00;56587.81;5050038;28;20358;-57
2022/04/23 07:24:15;;;;;;;25.05;22.95;;;;;;;-148.33;100.00;56587.81;5049984;28;20031;-57
2022/04/23 07:26:41;;;;;;;24.38;22.20;;;;;;;-148.33;100.00;56587.81;5050220;28;20043;-55
2022/04/23 07:29:10;;;;;;;23.45;21.50;;;;;;;-148.33;100.00;56587.81;5050414;28;20025;-56
2022/04/23 07:31:36;;;;;;;23.98;21.98;;;;;;;-148.33;100.00;56587.81;5049078;28;20469;-58
2022/04/23 07:39:31;;;;;;;22.92;20.98;;;;;;;-148.33;100.00;56587.81;5049835;28;20044;-56
2022/04/23 07:41:56;;;;;;;24.15;22.15;;;;;;;-148.33;100.00;56587.81;5042335;28;20028;-58
2022/04/23 07:44:22;;;;;;;22.92;21.00;;;;;;;-148.33;100.00;56587.81;5049534;28;20035;-58
2022/04/23 07:46:48;;;;;;;24.00;21.85;;;;;;;-148.33;100.00;56587.81;5049650;28;20075;-56
2022/04/23 07:49:14;;;;;;;23.17;21.23;;;;;;;-148.33;100.00;56587.81;5049569;28;20068;-56
2022/04/23 07:51:41;;;;;;;23.27;21.20;;;;;;;-148.33;100.00;56587.81;5049304;28;20323;-58
2022/04/23 07:54:07;;;;;;;22.55;20.60;;;;;;;-148.33;100.00;56587.81;5049702;28;20035;-57
2022/04/23 07:56:32;;;;;;;21.88;20.05;;;;;;;-148.33;100.00;56587.81;5049539;28;20431;-57
2022/04/23 07:58:57;;;;;;;21.77;19.98;;;;;;;-148.33;100.00;56587.81;5049789;28;20024;-57
2022/04/23 08:01:23;;;;;;;22.02;20.15;;;;;;;-148.33;100.00;56587.81;5049249;28;20048;-56
2022/04/23 08:03:48;;;;;;;22.55;20.48;;;;;;;-148.33;100.00;56587.81;5048818;28;20021;-57
2022/04/23 08:06:13;;;;;;;22.27;20.38;;;;;;;-148.33;100.00;56587.81;5049291;28;20021;-57
2022/04/23 08:08:39;;;;;;;21.13;19.35;;;;;;;-148.33;100.00;56587.81;5049322;28;20025;-57
2022/04/23 08:11:06;;;;;;;22.05;20.02;;;;;;;-148.33;100.00;56587.81;5049427;28;20059;-55
2022/04/23 08:13:32;;;;;;;21.52;19.83;;;;;;;-148.33;100.00;56587.81;5049736;28;20164;-58
2022/04/23 08:15:59;;;;;;;22.85;20.95;;;;;;;-148.33;100.00;56587.81;5049273;28;20031;-57
2022/04/23 08:18:25;;;;;;;19.90;18.20;;;;;;;-148.33;100.00;56587.81;5048740;28;20139;-57
2022/04/23 08:20:50;;;;;;;23.08;21.08;;;;;;;-148.33;100.00;56587.81;5047539;28;20096;-57
2022/04/23 08:23:19;;;;;;;22.10;20.25;;;;;;;-148.33;100.00;56587.81;5048837;28;20033;-55
2022/04/23 08:25:45;;;;;;;22.63;20.83;;;;;;;-148.33;100.00;56587.81;5048980;28;20417;-58
2022/04/23 08:30:54;;;;;;;21.20;19.50;;;;;;;-148.33;100.00;56587.81;5049380;28;20076;-56
2022/04/23 08:33:19;;;;;;;20.95;19.15;;;;;;;-148.33;100.00;56587.81;5048651;28;20037;-57
2022/04/23 08:35:45;;;;;;;22.27;20.48;;;;;;;-148.33;100.00;56587.81;5048778;28;20037;-57
2022/04/23 08:38:10;;;;;;;21.17;19.33;;;;;;;-148.33;100.00;56587.81;5048409;28;20492;-57
2022/04/23 08:40:39;;;;;;;20.60;18.92;;;;;;;-148.33;100.00;56587.81;5048640;28;20053;-58
2022/04/23 08:43:06;;;;;;;21.48;19.38;;;;;;;-148.33;100.00;56587.81;5048677;28;20037;-58
2022/04/23 08:45:32;;;;;;;20.23;18.52;;;;;;;-148.33;100.00;56587.81;5048207;28;20091;-58
2022/04/23 08:48:06;;;;;;;22.13;19.95;;;;;;;-148.33;100.00;56587.81;5047775;28;20399;-56
2022/04/23 08:50:34;;;;;;;22.02;20.10;;;;;;;-148.33;100.00;56587.81;5048949;28;20209;-58
2022/04/23 08:53:01;;;;;;;20.85;19.23;;;;;;;-148.33;100.00;56587.81;5048585;28;20040;-58
2022/04/23 08:55:26;;;;;;;20.63;18.83;;;;;;;-148.33;100.00;56587.81;5048714;28;20036;-57
2022/04/23 08:57:52;;;;;;;32.53;21.17;;;;;;;-148.33;100.00;56587.81;5047946;28;20033;-57
2022/04/23 09:00:18;;;;;;;24.88;20.73;;;;;;;-148.33;100.00;56587.81;5048731;28;20538;-57
2022/04/23 09:02:44;;;;;;;25.45;23.17;;;;;;;-148.33;100.00;56587.81;5048404;28;20029;-57
2022/04/23 09:05:13;;;;;;;23.17;20.95;;;;;;;-148.33;100.00;56587.81;5048483;28;20255;-59
2022/04/23 09:07:39;;;;;;;22.90;20.83;;;;;;;-148.33;100.00;56587.81;5048360;28;20039;-58
2022/04/23 09:10:06;;;;;;;23.33;21.27;;;;;;;-148.33;100.00;56587.81;5048065;28;20424;-57
2022/04/23 09:12:31;;;;;;;22.70;21.00;;;;;;;-148.33;100.00;56587.81;5045991;28;20021;-57
2022/04/23 09:23:39;;;;;;;23.67;21.58;;;;;;;-148.33;100.00;56587.81;5031887;28;20116;-54
2022/04/23 09:23:41;;;;;;;26.15;24.05;;;;;;;-148.33;100.00;56587.81;5028226;28;20397;-57
2022/04/23 09:26:21;;;;;;;24.25;22.35;;;;;;;-148.33;100.00;56587.81;5028720;28;20025;-57
2022/04/23 09:28:50;;;;;;;25.08;23.08;;;;;;;-148.33;100.00;56587.81;5028641;28;20436;-58
2022/04/23 09:31:16;;;;;;;27.70;25.38;;;;;;;-148.33;100.00;56587.81;5028126;28;20024;-56
2022/04/23 09:33:51;;;;;;;26.25;23.85;;;;;;;-148.33;100.00;56587.81;5027884;28;20050;-57
2022/04/23 09:36:17;;;;;;;27.00;24.83;;;;;;;-148.33;100.00;56587.81;5028220;28;20559;-57
2022/04/23 09:38:42;;;;;;;27.65;25.25;;;;;;;-148.33;100.00;56587.81;5028546;28;20041;-57
2022/04/23 09:41:18;;;;;;;28.77;26.38;;;;;;;-148.33;100.00;56587.81;5027955;28;20032;-58
2022/04/23 09:43:45;;;;;;;27.30;25.10;;;;;;;-148.33;100.00;56587.81;5028214;28;20033;-57
2022/04/23 09:46:10;;;;;;;27.17;25.08;;;;;;;-148.33;100.00;56587.81;5028383;28;20059;-58
2022/04/23 09:48:40;;;;;;;27.75;25.55;;;;;;;-148.33;100.00;56587.81;5027929;28;20020;-57
2022/04/23 09:51:20;;;;;;;28.88;26.58;;;;;;;-148.33;100.00;56587.81;5028216;28;20108;-57
2022/04/23 09:53:47;;;;;;;28.30;25.97;;;;;;;-148.33;100.00;56587.81;5030939;28;20053;-59
2022/04/23 09:56:13;;;;;;;28.48;25.88;;;;;;;-148.33;100.00;56587.81;5033907;28;20392;-56
2022/04/23 09:58:39;;;;;;;28.27;25.80;;;;;;;-148.33;100.00;56587.81;5030043;28;20025;-57
2022/04/23 10:01:07;;;;;;;27.55;25.25;;;;;;;-148.33;100.00;56587.81;5036439;28;20056;-57
2022/04/23 10:03:33;;;;;;;27.50;25.20;;;;;;;-148.33;100.00;56587.81;5033098;28;20540;-58
2022/04/23 10:06:02;;;;;;;27.73;25.20;;;;;;;-148.33;100.00;56587.81;5034668;28;20104;-57
2022/04/23 10:08:35;;;;;;;27.45;25.23;;;;;;;-148.33;100.00;56587.81;5033889;28;20515;-58
2022/04/23 10:11:14;;;;;;;28.05;25.85;;;;;;;-148.33;100.00;56587.81;5038084;28;20036;-58
2022/04/23 10:13:41;;;;;;;27.77;25.55;;;;;;;-148.33;100.00;56587.81;5036851;28;20037;-59
2022/04/23 10:16:08;;;;;;;27.90;25.65;;;;;;;-148.33;100.00;56587.81;5031968;28;20036;-59
2022/04/23 10:18:40;;;;;;;28.58;26.50;;;;;;;-148.33;100.00;56587.81;5031712;28;20052;-58
2022/04/23 10:21:08;;;;;;;28.98;26.58;;;;;;;-148.33;100.00;56587.81;5050593;28;20032;-58
2022/04/23 10:24:16;;;;;;;24.77;22.80;;;;;;;-148.33;100.00;56587.81;5044383;28;20414;-58
2022/04/23 10:26:59;;;;;;;26.92;24.60;;;;;;;-148.33;100.00;56587.81;5044881;28;20029;-59
2022/04/23 10:29:27;;;;;;;26.98;24.63;;;;;;;-148.33;100.00;56587.81;5037150;28;20099;-59
2022/04/23 10:32:22;;;;;;;25.02;22.83;;;;;;;-148.33;100.00;56587.81;5040568;28;20485;-58
2022/04/23 10:34:47;;;;;;;27.27;25.15;;;;;;;-148.33;100.00;56587.81;5033914;28;20132;-59
2022/04/23 10:37:28;;;;;;;26.92;24.33;;;;;;;-148.33;100.00;56587.81;5034476;28;20108;-58
2022/04/23 10:39:53;;;;;;;28.87;26.40;;;;;;;-148.33;100.00;56587.81;5031517;28;20434;-59
2022/04/23 10:42:19;;;;;;;28.65;25.73;;;;;;;-148.33;100.00;56587.81;5030914;28;20338;-57
2022/04/23 10:44:48;;;;;;;28.92;26.20;;;;;;;-148.33;100.00;56587.81;5030740;28;20026;-56
2022/04/23 10:47:30;;;;;;;28.52;26.30;;;;;;;-148.33;100.00;56587.81;5030869;28;20088;-58
2022/04/23 10:50:19;;;;;;;29.90;27.48;;;;;;;-148.33;100.00;56587.81;5044236;28;20027;-59
2022/04/23 10:52:45;;;;;;;29.50;26.83;;;;;;;-148.33;100.00;56587.81;5050102;28;20500;-59
2022/04/23 10:55:12;;;;;;;29.75;27.25;;;;;;;-148.33;100.00;56587.81;5047688;28;20027;-59
2022/04/23 10:57:39;;;;;;;27.98;25.52;;;;;;;-148.33;100.00;56587.81;5033421;28;20473;-59
2022/04/23 11:00:17;;;;;;;28.58;26.38;;;;;;;-148.33;100.00;56587.81;5029922;28;20089;-59
2022/04/23 11:02:47;;;;;;;29.88;27.30;;;;;;;-148.33;100.00;56587.81;5031136;28;20021;-58
2022/04/23 11:14:06;;;;;;;27.95;25.60;;;;;;;-148.33;100.00;56587.81;5046349;28;20080;-59
2022/04/23 11:16:32;;;;;;;26.95;24.77;;;;;;;-148.33;100.00;56587.81;5048481;28;20028;-58